SBRB/RBR METAR and TAF weather

Enter ICAO airport designator
Station Type Date Time Source
SBRB METAR 2018/12/13 05:00 UTC NOAA

SBRB 130500Z 32006KT CAVOK 24/23 Q1013


Station Type Date Time Source
SBRB Decoded METAR 2018/12/13 05:00 UTC NOAA

Rio Branco, Brazil (SBRB) 10-00S 067-48W 143M
Dec 13, 2018 - 12:00 AM EST / 2018.12.13 0500 UTC
Wind: from the NW (320 degrees) at 7 MPH (6 KT):0
Visibility: greater than 7 mile(s):0
Temperature: 75 F (24 C)
Dew Point: 73 F (23 C)
Relative Humidity: 94%
Pressure (altimeter): 29.91 in. Hg (1013 hPa)
ob: SBRB 130500Z 32006KT CAVOK 24/23 Q1013
cycle: 5

Station Type Date Time Source
SBRB TAF 2018/12/13 06:03 UTC NOAA

TAF SBRB 130400Z 1306/1406 33003KT CAVOK TN24/1308Z TX31/1318Z
BECMG 1408/1410 32007KT BKN008
BECMG 1413/1415 32005KT BKN020 FEW025TCU
BECMG 1417/1 419 29005KT SCT020 FEW025TCU
BECMG 1421/1423 33002KT
RMK PAZ


Example: see airport list